Accedi per prenotare

Caricamento...

Situazione Metar e Taf aeroporto Pisa - Effemeridi Aeroporto Lucca

[Source: ADDS]
METAR
LIRP 281215Z 11008KT CAVOK 16/M03 Q1016 NOSIG =
LIRP 281100Z 2812/2912 09010KT CAVOK BECMG 2900/2902 9999 BKN070
TAF
LIRP 281100Z 2812/2912 09010KT CAVOK BECMG 2900/2902 9999 BKN070 =
SR / SS: 05:58 / 17:06 UTC (Effemeridi LIQL 2020-02-28)